CPA766 VVTS-VHHH
Flight info
| Callsign | CPA766 |
|---|---|
| Flight time | N/A |
| Altitude | 39000 |
| Route | PATMA W12 PCA G221 BUNTA A1 IKELA P901 IDOOSI V561 CANTO |
| Aircraft | A333/H-SDE3GHIJ2J3J5M1RVWXY/LB2D1 |
Departure
| Time | 2026-05-05 08:02 |
|---|---|
| Airport | Tan Son Nhat International Airport (VVTS) |
Arrival
| Time | N/A |
|---|---|
| Airport | Hong Kong International Airport (VHHH) |
| Time | Latitude | Longitude | Altitude | Speed | Heading |
|---|---|---|---|---|---|
| 2026-05-05 07:44 | 10.81251 | 106.65269 | 41 ft | 0 kts | 157° |
| 2026-05-05 07:51 | 10.81253 | 106.65267 | 41 ft | 2 kts | 157° |
| 2026-05-05 07:51 | 10.81273 | 106.65259 | 41 ft | 2 kts | 157° |
| 2026-05-05 07:51 | 10.81287 | 106.65250 | 40 ft | 2 kts | 127° |
| 2026-05-05 07:52 | 10.81294 | 106.65236 | 41 ft | 2 kts | 96° |
| 2026-05-05 07:52 | 10.81293 | 106.65220 | 41 ft | 2 kts | 70° |
| 2026-05-05 07:52 | 10.81292 | 106.65217 | 41 ft | 0 kts | 70° |
| 2026-05-05 07:54 | 10.81292 | 106.65219 | 41 ft | 1 kts | 70° |
| 2026-05-05 07:54 | 10.81297 | 106.65234 | 41 ft | 3 kts | 71° |
| 2026-05-05 07:54 | 10.81305 | 106.65255 | 41 ft | 3 kts | 69° |
| 2026-05-05 07:54 | 10.81315 | 106.65281 | 41 ft | 6 kts | 69° |
| 2026-05-05 07:55 | 10.81332 | 106.65328 | 41 ft | 8 kts | 69° |
| 2026-05-05 07:55 | 10.81354 | 106.65384 | 41 ft | 9 kts | 69° |
| 2026-05-05 07:55 | 10.81378 | 106.65450 | 41 ft | 11 kts | 68° |
| 2026-05-05 07:55 | 10.81407 | 106.65524 | 41 ft | 12 kts | 69° |
| 2026-05-05 07:56 | 10.81438 | 106.65607 | 41 ft | 13 kts | 69° |
| 2026-05-05 07:56 | 10.81472 | 106.65697 | 41 ft | 14 kts | 69° |
| 2026-05-05 07:56 | 10.81500 | 106.65767 | 41 ft | 10 kts | 60° |
| 2026-05-05 07:56 | 10.81562 | 106.65795 | 41 ft | 11 kts | 6° |
| 2026-05-05 07:57 | 10.81640 | 106.65802 | 40 ft | 12 kts | 5° |
| 2026-05-05 07:57 | 10.81733 | 106.65797 | 38 ft | 12 kts | 14° |
| 2026-05-05 07:57 | 10.81781 | 106.65855 | 39 ft | 11 kts | 66° |
| 2026-05-05 07:57 | 10.81807 | 106.65930 | 39 ft | 12 kts | 68° |
| 2026-05-05 07:58 | 10.81840 | 106.66015 | 40 ft | 14 kts | 69° |
| 2026-05-05 07:58 | 10.81876 | 106.66111 | 40 ft | 15 kts | 70° |
| 2026-05-05 07:58 | 10.81916 | 106.66218 | 40 ft | 16 kts | 69° |
| 2026-05-05 07:58 | 10.81957 | 106.66327 | 41 ft | 17 kts | 69° |
| 2026-05-05 07:59 | 10.82002 | 106.66446 | 39 ft | 19 kts | 69° |
| 2026-05-05 07:59 | 10.82053 | 106.66579 | 37 ft | 21 kts | 69° |
| 2026-05-05 07:59 | 10.82105 | 106.66718 | 37 ft | 20 kts | 69° |
| 2026-05-05 07:59 | 10.82147 | 106.66830 | 35 ft | 15 kts | 69° |
| 2026-05-05 08:00 | 10.82185 | 106.66931 | 37 ft | 15 kts | 69° |
| 2026-05-05 08:00 | 10.82217 | 106.66994 | 39 ft | 8 kts | 43° |
| 2026-05-05 08:00 | 10.82270 | 106.67001 | 39 ft | 9 kts | 349° |
| 2026-05-05 08:00 | 10.82326 | 106.66966 | 38 ft | 11 kts | 314° |
| 2026-05-05 08:01 | 10.82350 | 106.66897 | 38 ft | 11 kts | 263° |
| 2026-05-05 08:01 | 10.82319 | 106.66811 | 37 ft | 22 kts | 248° |
| 2026-05-05 08:01 | 10.82193 | 106.66481 | 37 ft | 80 kts | 249° |
| 2026-05-05 08:01 | 10.81924 | 106.65772 | 43 ft | 133 kts | 249° |
| 2026-05-05 08:02 | 10.81551 | 106.64743 | 219 ft | 166 kts | 247° |
| 2026-05-05 08:02 | 10.81147 | 106.63617 | 823 ft | 171 kts | 247° |
| 2026-05-05 08:02 | 10.80708 | 106.62434 | 1473 ft | 184 kts | 245° |
| 2026-05-05 08:02 | 10.80241 | 106.61202 | 2073 ft | 199 kts | 247° |
| 2026-05-05 08:03 | 10.79712 | 106.59781 | 2301 ft | 231 kts | 248° |
| 2026-05-05 08:03 | 10.79126 | 106.58154 | 2606 ft | 255 kts | 250° |
| 2026-05-05 08:03 | 10.78510 | 106.56443 | 3332 ft | 257 kts | 252° |
| 2026-05-05 08:03 | 10.78277 | 106.54657 | 4107 ft | 258 kts | 279° |
| 2026-05-05 08:04 | 10.78991 | 106.53023 | 4819 ft | 256 kts | 316° |
| 2026-05-05 08:04 | 10.80506 | 106.52075 | 5335 ft | 263 kts | 349° |
| 2026-05-05 08:04 | 10.82335 | 106.52086 | 5867 ft | 268 kts | 15° |
| 2026-05-05 08:04 | 10.84122 | 106.52695 | 6536 ft | 273 kts | 22° |
| 2026-05-05 08:05 | 10.85906 | 106.53408 | 7230 ft | 277 kts | 23° |
| 2026-05-05 08:05 | 10.87723 | 106.54111 | 7920 ft | 282 kts | 21° |
| 2026-05-05 08:05 | 10.89587 | 106.54803 | 8667 ft | 286 kts | 21° |
| 2026-05-05 08:05 | 10.91472 | 106.55484 | 9444 ft | 289 kts | 20° |
| 2026-05-05 08:06 | 10.93382 | 106.56164 | 10163 ft | 293 kts | 20° |
| 2026-05-05 08:06 | 10.95356 | 106.56862 | 10542 ft | 310 kts | 20° |
| 2026-05-05 08:06 | 10.97454 | 106.57611 | 10808 ft | 329 kts | 21° |
| 2026-05-05 08:06 | 10.99506 | 106.58778 | 11061 ft | 344 kts | 43° |
| 2026-05-05 08:07 | 11.01112 | 106.60606 | 11667 ft | 348 kts | 52° |
| 2026-05-05 08:07 | 11.02596 | 106.62560 | 12322 ft | 352 kts | 53° |
| 2026-05-05 08:07 | 11.04073 | 106.64530 | 12945 ft | 356 kts | 53° |
| 2026-05-05 08:07 | 11.05609 | 106.66564 | 13635 ft | 359 kts | 53° |
| 2026-05-05 08:08 | 11.07123 | 106.68556 | 14168 ft | 363 kts | 52° |
| 2026-05-05 08:08 | 11.08683 | 106.70601 | 14726 ft | 367 kts | 52° |
| 2026-05-05 08:08 | 11.10261 | 106.72665 | 15277 ft | 371 kts | 52° |
| 2026-05-05 08:08 | 11.11858 | 106.74752 | 15799 ft | 375 kts | 52° |
| 2026-05-05 08:09 | 11.13471 | 106.76858 | 16368 ft | 379 kts | 52° |
| 2026-05-05 08:09 | 11.15100 | 106.78985 | 16882 ft | 383 kts | 52° |
| 2026-05-05 08:09 | 11.16753 | 106.81144 | 17410 ft | 387 kts | 53° |
| 2026-05-05 08:09 | 11.18419 | 106.83318 | 17925 ft | 391 kts | 52° |
| 2026-05-05 08:10 | 11.20098 | 106.85511 | 18376 ft | 395 kts | 52° |
| 2026-05-05 08:10 | 11.21799 | 106.87733 | 18832 ft | 397 kts | 52° |
| 2026-05-05 08:10 | 11.23506 | 106.89963 | 19300 ft | 400 kts | 52° |
| 2026-05-05 08:10 | 11.25201 | 106.92177 | 19745 ft | 403 kts | 52° |
| 2026-05-05 08:11 | 11.26952 | 106.94466 | 20191 ft | 406 kts | 52° |
| 2026-05-05 08:11 | 11.28667 | 106.96708 | 20617 ft | 408 kts | 52° |
| 2026-05-05 08:11 | 11.30440 | 106.99026 | 21064 ft | 411 kts | 52° |
| 2026-05-05 08:11 | 11.32186 | 107.01309 | 21479 ft | 414 kts | 52° |
| 2026-05-05 08:12 | 11.33964 | 107.03634 | 21904 ft | 417 kts | 52° |
| 2026-05-05 08:12 | 11.35893 | 107.05862 | 22331 ft | 420 kts | 44° |
| 2026-05-05 08:12 | 11.38125 | 107.07789 | 22776 ft | 422 kts | 38° |
| 2026-05-05 08:12 | 11.40474 | 107.09604 | 23195 ft | 424 kts | 37° |
| 2026-05-05 08:13 | 11.42853 | 107.11409 | 23547 ft | 427 kts | 37° |
| 2026-05-05 08:13 | 11.45242 | 107.13222 | 23887 ft | 430 kts | 37° |
| 2026-05-05 08:13 | 11.47648 | 107.15052 | 24219 ft | 432 kts | 37° |
| 2026-05-05 08:13 | 11.50033 | 107.16870 | 24553 ft | 434 kts | 37° |
| 2026-05-05 08:14 | 11.52459 | 107.18721 | 24902 ft | 437 kts | 37° |
| 2026-05-05 08:14 | 11.54901 | 107.20586 | 25207 ft | 440 kts | 37° |
| 2026-05-05 08:14 | 11.57359 | 107.22465 | 25545 ft | 442 kts | 37° |
| 2026-05-05 08:14 | 11.59822 | 107.24348 | 25879 ft | 444 kts | 37° |
| 2026-05-05 08:15 | 11.62301 | 107.26243 | 26203 ft | 446 kts | 37° |
| 2026-05-05 08:15 | 11.64800 | 107.28155 | 26533 ft | 449 kts | 37° |
| 2026-05-05 08:15 | 11.67303 | 107.30070 | 26868 ft | 451 kts | 37° |
| 2026-05-05 08:15 | 11.69817 | 107.31994 | 27181 ft | 453 kts | 37° |
| 2026-05-05 08:16 | 11.72348 | 107.33931 | 27519 ft | 455 kts | 37° |
| 2026-05-05 08:16 | 11.74887 | 107.35876 | 27835 ft | 458 kts | 37° |
| 2026-05-05 08:16 | 11.77442 | 107.37832 | 28153 ft | 460 kts | 37° |
| 2026-05-05 08:16 | 11.79979 | 107.39776 | 28452 ft | 463 kts | 37° |
| 2026-05-05 08:17 | 11.82556 | 107.41751 | 28806 ft | 464 kts | 37° |
| 2026-05-05 08:17 | 11.85144 | 107.43734 | 29112 ft | 466 kts | 37° |
| 2026-05-05 08:17 | 11.87746 | 107.45728 | 29381 ft | 469 kts | 37° |
| 2026-05-05 08:17 | 11.90364 | 107.47736 | 29664 ft | 472 kts | 37° |
| 2026-05-05 08:18 | 11.92991 | 107.49751 | 29941 ft | 474 kts | 37° |
| 2026-05-05 08:18 | 11.95637 | 107.51780 | 30211 ft | 476 kts | 36° |
| 2026-05-05 08:18 | 11.98284 | 107.53811 | 30423 ft | 478 kts | 36° |
| 2026-05-05 08:18 | 12.00951 | 107.55859 | 30671 ft | 480 kts | 36° |
| 2026-05-05 08:19 | 12.03626 | 107.57913 | 30884 ft | 482 kts | 36° |
| 2026-05-05 08:19 | 12.06311 | 107.59975 | 31143 ft | 483 kts | 36° |
| 2026-05-05 08:19 | 12.08999 | 107.62039 | 31383 ft | 485 kts | 36° |
| 2026-05-05 08:19 | 12.11705 | 107.64118 | 31614 ft | 487 kts | 36° |
| 2026-05-05 08:20 | 12.14420 | 107.66205 | 31877 ft | 488 kts | 36° |
| 2026-05-05 08:20 | 12.17132 | 107.68290 | 32204 ft | 487 kts | 36° |
| 2026-05-05 08:20 | 12.19829 | 107.70364 | 32535 ft | 487 kts | 36° |
| 2026-05-05 08:20 | 12.22558 | 107.72463 | 32664 ft | 491 kts | 36° |
| 2026-05-05 08:21 | 12.25286 | 107.74562 | 33015 ft | 489 kts | 36° |
| 2026-05-05 08:21 | 12.27969 | 107.76626 | 33339 ft | 489 kts | 36° |
| 2026-05-05 08:21 | 12.30679 | 107.78713 | 33679 ft | 488 kts | 36° |
| 2026-05-05 08:21 | 12.33362 | 107.80833 | 33948 ft | 488 kts | 39° |
| 2026-05-05 08:22 | 12.35929 | 107.83105 | 34255 ft | 487 kts | 41° |
| 2026-05-05 08:22 | 12.38435 | 107.85429 | 34558 ft | 485 kts | 41° |
| 2026-05-05 08:22 | 12.40905 | 107.87776 | 34873 ft | 484 kts | 42° |
| 2026-05-05 08:22 | 12.43358 | 107.90128 | 35188 ft | 482 kts | 42° |
| 2026-05-05 08:23 | 12.45805 | 107.92475 | 35462 ft | 481 kts | 42° |
| 2026-05-05 08:23 | 12.48250 | 107.94813 | 35771 ft | 480 kts | 42° |
| 2026-05-05 08:23 | 12.50693 | 107.97142 | 36035 ft | 479 kts | 42° |
| 2026-05-05 08:23 | 12.53133 | 107.99463 | 36216 ft | 481 kts | 42° |
| 2026-05-05 08:24 | 12.58062 | 108.04139 | 36464 ft | 486 kts | 42° |
| 2026-05-05 08:24 | 12.60547 | 108.06496 | 36708 ft | 487 kts | 42° |
| 2026-05-05 08:24 | 12.63024 | 108.08847 | 37016 ft | 484 kts | 42° |
| 2026-05-05 08:25 | 12.65512 | 108.11185 | 37225 ft | 485 kts | 39° |
| 2026-05-05 08:25 | 12.68174 | 108.13291 | 37484 ft | 483 kts | 35° |
| 2026-05-05 08:25 | 12.70905 | 108.15312 | 37682 ft | 484 kts | 34° |
| 2026-05-05 08:25 | 12.73653 | 108.17292 | 37937 ft | 483 kts | 34° |
| 2026-05-05 08:26 | 12.76418 | 108.19256 | 38194 ft | 482 kts | 33° |
| 2026-05-05 08:26 | 12.79179 | 108.21205 | 38370 ft | 482 kts | 34° |
| 2026-05-05 08:26 | 12.81941 | 108.23153 | 38633 ft | 481 kts | 33° |
| 2026-05-05 08:26 | 12.84703 | 108.25104 | 38790 ft | 481 kts | 33° |
| 2026-05-05 08:27 | 12.87440 | 108.27041 | 39210 ft | 474 kts | 33° |
| 2026-05-05 08:27 | 12.90097 | 108.28926 | 39578 ft | 469 kts | 33° |
| 2026-05-05 08:27 | 12.92808 | 108.30851 | 39786 ft | 467 kts | 33° |
| 2026-05-05 08:27 | 12.95476 | 108.32746 | 39938 ft | 467 kts | 33° |
| 2026-05-05 08:28 | 12.98113 | 108.34618 | 40075 ft | 467 kts | 33° |
| 2026-05-05 08:28 | 13.00782 | 108.36516 | 40236 ft | 466 kts | 33° |
| 2026-05-05 08:28 | 13.03450 | 108.38413 | 40379 ft | 466 kts | 33° |
| 2026-05-05 08:28 | 13.06101 | 108.40297 | 40574 ft | 465 kts | 33° |
| 2026-05-05 08:29 | 13.08760 | 108.42190 | 40724 ft | 464 kts | 33° |
| 2026-05-05 08:29 | 13.11408 | 108.44074 | 40867 ft | 464 kts | 33° |
| 2026-05-05 08:30 | 13.19435 | 108.49787 | 40892 ft | 469 kts | 33° |
| 2026-05-05 08:30 | 13.24793 | 108.53605 | 40890 ft | 468 kts | 33° |
| 2026-05-05 08:31 | 13.30145 | 108.57421 | 40895 ft | 468 kts | 33° |
| 2026-05-05 08:31 | 13.35507 | 108.61241 | 40891 ft | 468 kts | 33° |
| 2026-05-05 08:32 | 13.40856 | 108.65051 | 40892 ft | 468 kts | 33° |
| 2026-05-05 08:32 | 13.46224 | 108.68876 | 40892 ft | 468 kts | 33° |
| 2026-05-05 08:33 | 13.51540 | 108.72667 | 40901 ft | 468 kts | 32° |
| 2026-05-05 08:33 | 13.56892 | 108.76486 | 40900 ft | 468 kts | 32° |
| 2026-05-05 08:34 | 13.62235 | 108.80301 | 40897 ft | 467 kts | 32° |
| 2026-05-05 08:34 | 13.67559 | 108.84104 | 40897 ft | 466 kts | 32° |
| 2026-05-05 08:35 | 13.72882 | 108.87909 | 40901 ft | 466 kts | 32° |
| 2026-05-05 08:35 | 13.78201 | 108.91712 | 40898 ft | 465 kts | 32° |
| 2026-05-05 08:36 | 13.83511 | 108.95512 | 40898 ft | 465 kts | 32° |
| 2026-05-05 08:36 | 13.87932 | 108.98677 | 40897 ft | 465 kts | 32° |
| 2026-05-05 08:37 | 13.93334 | 109.02354 | 40895 ft | 463 kts | 25° |
| 2026-05-05 08:37 | 13.99332 | 109.04586 | 40892 ft | 457 kts | 8° |
| 2026-05-05 08:38 | 14.05616 | 109.05564 | 40898 ft | 456 kts | 5° |
| 2026-05-05 08:38 | 14.11890 | 109.06296 | 40892 ft | 457 kts | 4° |
| 2026-05-05 08:39 | 14.18205 | 109.07013 | 40892 ft | 457 kts | 4° |
| 2026-05-05 08:39 | 14.24528 | 109.07761 | 40893 ft | 457 kts | 4° |
| 2026-05-05 08:40 | 14.30840 | 109.08526 | 40891 ft | 457 kts | 4° |
| 2026-05-05 08:40 | 14.37146 | 109.09295 | 40890 ft | 457 kts | 4° |
| 2026-05-05 08:41 | 14.43469 | 109.10066 | 40898 ft | 457 kts | 4° |
| 2026-05-05 08:41 | 14.49787 | 109.10835 | 40894 ft | 456 kts | 4° |
| 2026-05-05 08:42 | 14.56065 | 109.11600 | 40894 ft | 457 kts | 4° |
| 2026-05-05 08:42 | 14.62374 | 109.12369 | 40886 ft | 456 kts | 4° |
| 2026-05-05 08:43 | 14.68671 | 109.13138 | 40884 ft | 454 kts | 4° |
| 2026-05-05 08:43 | 14.74947 | 109.13904 | 40885 ft | 454 kts | 4° |
| 2026-05-05 08:44 | 14.81230 | 109.14671 | 40887 ft | 454 kts | 4° |
| 2026-05-05 08:44 | 14.87460 | 109.15432 | 40884 ft | 454 kts | 4° |
| 2026-05-05 08:45 | 14.93740 | 109.16199 | 40890 ft | 454 kts | 4° |
| 2026-05-05 08:45 | 15.00026 | 109.16968 | 40888 ft | 454 kts | 4° |
| 2026-05-05 08:46 | 15.06303 | 109.17737 | 40880 ft | 454 kts | 4° |
| 2026-05-05 08:46 | 15.12588 | 109.18506 | 40887 ft | 454 kts | 4° |
| 2026-05-05 08:47 | 15.18874 | 109.19277 | 40889 ft | 454 kts | 4° |
| 2026-05-05 08:47 | 15.25148 | 109.20046 | 40886 ft | 454 kts | 4° |
| 2026-05-05 08:48 | 15.31396 | 109.20813 | 40885 ft | 454 kts | 4° |
| 2026-05-05 08:48 | 15.37681 | 109.21584 | 40879 ft | 454 kts | 4° |
| 2026-05-05 08:49 | 15.43969 | 109.22357 | 40888 ft | 454 kts | 4° |
| 2026-05-05 08:49 | 15.50253 | 109.23129 | 40886 ft | 454 kts | 4° |
| 2026-05-05 08:50 | 15.56530 | 109.23902 | 40890 ft | 454 kts | 4° |
| 2026-05-05 08:50 | 15.62798 | 109.24672 | 40891 ft | 454 kts | 4° |
| 2026-05-05 08:51 | 15.69031 | 109.25435 | 40888 ft | 454 kts | 4° |
| 2026-05-05 08:51 | 15.75341 | 109.26206 | 40886 ft | 454 kts | 4° |
| 2026-05-05 08:52 | 15.81510 | 109.27453 | 40886 ft | 457 kts | 16° |
| 2026-05-05 08:52 | 15.87179 | 109.30553 | 40887 ft | 467 kts | 36° |
| 2026-05-05 08:53 | 15.92047 | 109.35087 | 40887 ft | 472 kts | 42° |
| 2026-05-05 08:53 | 15.96674 | 109.39941 | 40885 ft | 473 kts | 43° |
| 2026-05-05 08:54 | 16.01290 | 109.44826 | 40878 ft | 473 kts | 43° |
| 2026-05-05 08:54 | 16.05940 | 109.49680 | 40886 ft | 473 kts | 41° |
| 2026-05-05 08:55 | 16.10603 | 109.54510 | 40888 ft | 473 kts | 41° |
| 2026-05-05 08:55 | 16.15250 | 109.59316 | 40881 ft | 473 kts | 41° |
| 2026-05-05 08:56 | 16.19912 | 109.64143 | 40882 ft | 472 kts | 41° |
| 2026-05-05 08:56 | 16.24563 | 109.68965 | 40878 ft | 472 kts | 41° |
| 2026-05-05 08:57 | 16.29230 | 109.73807 | 40885 ft | 472 kts | 41° |
| 2026-05-05 08:57 | 16.33879 | 109.78634 | 40889 ft | 472 kts | 41° |
| 2026-05-05 08:58 | 16.38528 | 109.83465 | 40883 ft | 472 kts | 41° |
| 2026-05-05 08:58 | 16.43177 | 109.88299 | 40883 ft | 472 kts | 41° |
| 2026-05-05 08:59 | 16.47815 | 109.93126 | 40875 ft | 471 kts | 41° |
| 2026-05-05 08:59 | 16.52425 | 109.97928 | 40875 ft | 471 kts | 41° |
| 2026-05-05 09:00 | 16.57062 | 110.02760 | 40889 ft | 471 kts | 41° |
| 2026-05-05 09:00 | 16.61701 | 110.07598 | 40889 ft | 471 kts | 41° |
| 2026-05-05 09:01 | 16.66333 | 110.12432 | 40890 ft | 471 kts | 42° |
| 2026-05-05 09:01 | 16.70961 | 110.17266 | 40877 ft | 471 kts | 42° |
| 2026-05-05 09:02 | 16.75590 | 110.22104 | 40883 ft | 471 kts | 42° |
| 2026-05-05 09:02 | 16.80188 | 110.26914 | 40883 ft | 471 kts | 42° |
| 2026-05-05 09:03 | 16.84814 | 110.31755 | 40884 ft | 471 kts | 42° |
| 2026-05-05 09:03 | 16.89434 | 110.36595 | 40884 ft | 471 kts | 42° |
| 2026-05-05 09:04 | 16.94058 | 110.41442 | 40887 ft | 471 kts | 42° |
| 2026-05-05 09:04 | 16.98683 | 110.46293 | 40885 ft | 471 kts | 42° |
| 2026-05-05 09:05 | 17.03305 | 110.51146 | 40887 ft | 471 kts | 42° |
| 2026-05-05 09:05 | 17.07900 | 110.55971 | 40887 ft | 471 kts | 42° |
| 2026-05-05 09:06 | 17.12522 | 110.60830 | 40883 ft | 471 kts | 42° |
| 2026-05-05 09:06 | 17.17156 | 110.65705 | 40884 ft | 471 kts | 42° |
| 2026-05-05 09:07 | 17.21776 | 110.70569 | 40884 ft | 471 kts | 42° |
| 2026-05-05 09:07 | 17.26401 | 110.75442 | 40883 ft | 471 kts | 42° |
| 2026-05-05 09:08 | 17.31026 | 110.80319 | 40895 ft | 471 kts | 42° |
| 2026-05-05 09:08 | 17.35646 | 110.85193 | 40889 ft | 472 kts | 42° |
| 2026-05-05 09:09 | 17.40246 | 110.90050 | 40887 ft | 472 kts | 42° |
| 2026-05-05 09:09 | 17.44877 | 110.94944 | 40887 ft | 472 kts | 42° |
| 2026-05-05 09:10 | 17.49504 | 110.99837 | 40885 ft | 472 kts | 42° |
| 2026-05-05 09:10 | 17.54131 | 111.04735 | 40889 ft | 472 kts | 42° |
| 2026-05-05 09:11 | 17.58754 | 111.09632 | 40890 ft | 472 kts | 42° |
| 2026-05-05 09:11 | 17.63378 | 111.14532 | 40885 ft | 472 kts | 42° |
| 2026-05-05 09:12 | 17.68000 | 111.19435 | 40890 ft | 472 kts | 42° |
| 2026-05-05 09:12 | 17.72589 | 111.24306 | 40892 ft | 472 kts | 42° |
| 2026-05-05 09:13 | 17.77202 | 111.29206 | 40892 ft | 472 kts | 42° |
| 2026-05-05 09:13 | 17.81833 | 111.34130 | 40892 ft | 472 kts | 42° |
| 2026-05-05 09:14 | 17.86413 | 111.39003 | 40894 ft | 472 kts | 42° |
| 2026-05-05 09:14 | 17.91049 | 111.43939 | 40895 ft | 472 kts | 42° |
| 2026-05-05 09:15 | 17.95629 | 111.48820 | 40895 ft | 472 kts | 42° |
| 2026-05-05 09:15 | 18.00241 | 111.53738 | 40895 ft | 472 kts | 42° |
| 2026-05-05 09:16 | 18.04848 | 111.58656 | 40897 ft | 472 kts | 42° |
| 2026-05-05 09:16 | 18.09452 | 111.63574 | 40897 ft | 472 kts | 42° |
| 2026-05-05 09:17 | 18.14060 | 111.68500 | 40897 ft | 472 kts | 42° |
| 2026-05-05 09:17 | 18.18659 | 111.73422 | 40900 ft | 472 kts | 42° |
| 2026-05-05 09:18 | 18.23268 | 111.78358 | 40901 ft | 472 kts | 42° |
| 2026-05-05 09:18 | 18.27868 | 111.83290 | 40900 ft | 472 kts | 42° |
| 2026-05-05 09:19 | 18.32470 | 111.88227 | 40899 ft | 472 kts | 42° |
| 2026-05-05 09:19 | 18.37047 | 111.93141 | 40900 ft | 472 kts | 42° |
| 2026-05-05 09:20 | 18.41651 | 111.98088 | 40897 ft | 472 kts | 42° |
| 2026-05-05 09:20 | 18.46249 | 112.03034 | 40905 ft | 472 kts | 42° |
| 2026-05-05 09:21 | 18.50846 | 112.07981 | 40904 ft | 472 kts | 42° |
| 2026-05-05 09:21 | 18.55437 | 112.12926 | 40903 ft | 473 kts | 42° |
| 2026-05-05 09:22 | 18.60005 | 112.17852 | 40902 ft | 472 kts | 42° |
| 2026-05-05 09:22 | 18.64617 | 112.22783 | 40897 ft | 471 kts | 38° |
| 2026-05-05 09:22 | 18.67249 | 112.24777 | 40904 ft | 463 kts | 25° |
| 2026-05-05 09:23 | 18.69176 | 112.25840 | 40904 ft | 461 kts | 22° |
| 2026-05-05 09:23 | 18.74947 | 112.28697 | 40909 ft | 461 kts | 21° |
| 2026-05-05 09:24 | 18.80787 | 112.31508 | 40901 ft | 462 kts | 21° |
| 2026-05-05 09:24 | 18.86643 | 112.34322 | 40903 ft | 462 kts | 21° |
| 2026-05-05 09:25 | 18.92491 | 112.37133 | 40903 ft | 462 kts | 21° |
| 2026-05-05 09:25 | 18.98345 | 112.39949 | 40903 ft | 462 kts | 21° |
| 2026-05-05 09:26 | 19.04189 | 112.42762 | 40915 ft | 462 kts | 20° |
| 2026-05-05 09:26 | 19.10015 | 112.45568 | 40905 ft | 463 kts | 20° |
| 2026-05-05 09:27 | 19.15874 | 112.48393 | 40906 ft | 463 kts | 20° |
| 2026-05-05 09:27 | 19.21735 | 112.51220 | 40911 ft | 463 kts | 20° |
| 2026-05-05 09:28 | 19.27599 | 112.54051 | 40908 ft | 463 kts | 20° |
| 2026-05-05 09:28 | 19.33460 | 112.56883 | 40909 ft | 463 kts | 20° |
| 2026-05-05 09:29 | 19.39324 | 112.59719 | 40911 ft | 463 kts | 20° |
| 2026-05-05 09:29 | 19.45195 | 112.62560 | 40911 ft | 464 kts | 20° |
| 2026-05-05 09:30 | 19.51069 | 112.65406 | 40912 ft | 464 kts | 20° |
| 2026-05-05 09:30 | 19.56938 | 112.68250 | 40914 ft | 464 kts | 20° |
| 2026-05-05 09:31 | 19.62776 | 112.71082 | 40916 ft | 464 kts | 20° |
| 2026-05-05 09:31 | 19.68664 | 112.73940 | 40914 ft | 465 kts | 20° |
| 2026-05-05 09:32 | 19.74547 | 112.76799 | 40918 ft | 465 kts | 20° |
| 2026-05-05 09:32 | 19.80438 | 112.79663 | 40918 ft | 465 kts | 20° |
| 2026-05-05 09:33 | 19.86290 | 112.82511 | 40918 ft | 465 kts | 20° |
| 2026-05-05 09:33 | 19.92176 | 112.85378 | 40916 ft | 465 kts | 20° |
| 2026-05-05 09:34 | 19.98061 | 112.88247 | 40916 ft | 466 kts | 20° |
| 2026-05-05 09:34 | 20.03968 | 112.91128 | 40922 ft | 466 kts | 20° |
| 2026-05-05 09:35 | 20.09871 | 112.94011 | 40923 ft | 466 kts | 20° |
| 2026-05-05 09:35 | 20.18701 | 112.98328 | 40599 ft | 462 kts | 20° |
| 2026-05-05 09:36 | 20.21611 | 112.99752 | 40368 ft | 460 kts | 20° |
| 2026-05-05 09:36 | 20.24482 | 113.01157 | 40131 ft | 461 kts | 19° |
| 2026-05-05 09:36 | 20.27398 | 113.02584 | 39896 ft | 462 kts | 19° |
| 2026-05-05 09:36 | 20.30321 | 113.04015 | 39663 ft | 462 kts | 19° |
| 2026-05-05 09:37 | 20.33241 | 113.05446 | 39438 ft | 463 kts | 19° |
| 2026-05-05 09:37 | 20.36174 | 113.06884 | 39210 ft | 464 kts | 19° |
| 2026-05-05 09:37 | 20.39112 | 113.08325 | 38983 ft | 464 kts | 19° |
| 2026-05-05 09:37 | 20.42062 | 113.09773 | 38763 ft | 465 kts | 19° |